createdAt,value
2023-01-27T00:00:38.309Z,15.57
2023-01-27T00:03:04.697Z,15.84
2023-01-27T00:05:31.093Z,15.95
2023-01-27T00:07:57.476Z,16.62
2023-01-27T00:10:24.175Z,16.16
2023-01-27T00:12:50.569Z,16.02
2023-01-27T00:15:17.139Z,16.59
2023-01-27T00:17:48.513Z,16.74
2023-01-27T00:20:16.081Z,16.60
2023-01-27T00:22:42.780Z,17.03
2023-01-27T00:25:09.180Z,17.51
2023-01-27T00:27:36.692Z,17.79
2023-01-27T00:30:03.108Z,18.03
2023-01-27T00:32:29.453Z,17.34
2023-01-27T00:34:55.815Z,17.71
2023-01-27T00:37:22.196Z,17.22
2023-01-27T00:39:48.555Z,17.57
2023-01-27T00:42:14.906Z,17.52
2023-01-27T00:44:41.255Z,17.67
2023-01-27T00:47:07.592Z,17.18
2023-01-27T00:49:34.286Z,16.96
2023-01-27T00:52:00.695Z,16.94
2023-01-27T00:54:27.383Z,17.40
2023-01-27T00:56:53.741Z,17.25
2023-01-27T00:59:20.123Z,17.60
2023-01-27T01:01:46.643Z,17.52
2023-01-27T01:04:13.053Z,18.08
2023-01-27T01:06:40.543Z,17.17
2023-01-27T01:09:07.001Z,17.73
2023-01-27T01:11:33.404Z,16.83
2023-01-27T01:14:00.138Z,17.61
2023-01-27T01:16:26.566Z,17.62
2023-01-27T01:18:53.069Z,17.34
2023-01-27T01:21:19.629Z,17.35
2023-01-27T01:23:46.668Z,17.29
2023-01-27T01:26:13.041Z,17.11
2023-01-27T01:28:39.447Z,17.89
2023-01-27T01:31:06.097Z,17.67
2023-01-27T01:33:32.556Z,18.33
2023-01-27T01:35:58.936Z,18.94
2023-01-27T01:38:25.320Z,18.65
2023-01-27T01:40:51.706Z,18.79
2023-01-27T01:43:18.069Z,19.08
2023-01-27T01:45:44.465Z,18.89
2023-01-27T01:48:11.873Z,18.57
2023-01-27T01:50:38.371Z,18.97
2023-01-27T01:53:04.745Z,18.80
2023-01-27T01:55:31.153Z,19.12
2023-01-27T01:57:57.552Z,19.52
2023-01-27T02:00:23.955Z,19.54
2023-01-27T02:02:51.446Z,19.42
2023-01-27T02:05:20.273Z,19.11
2023-01-27T02:07:46.645Z,19.58
2023-01-27T02:10:13.310Z,19.97
2023-01-27T02:12:39.908Z,20.33
2023-01-27T02:15:06.273Z,20.04
2023-01-27T02:17:32.675Z,19.89
2023-01-27T02:19:59.180Z,19.02
2023-01-27T02:22:27.858Z,17.91
2023-01-27T02:24:54.269Z,19.06
2023-01-27T02:27:21.507Z,18.99
2023-01-27T02:29:47.861Z,18.87
2023-01-27T02:32:14.218Z,19.19
2023-01-27T02:34:40.634Z,19.21
2023-01-27T02:37:07.298Z,18.91
2023-01-27T02:39:33.943Z,18.88
2023-01-27T02:42:00.337Z,18.92
2023-01-27T02:44:26.972Z,18.99
2023-01-27T02:46:53.467Z,18.61
2023-01-27T02:49:19.847Z,18.85
2023-01-27T02:51:46.251Z,18.65
2023-01-27T02:54:12.779Z,18.93
2023-01-27T02:56:39.142Z,19.71
2023-01-27T02:59:05.486Z,18.81
2023-01-27T03:01:31.938Z,19.17
2023-01-27T03:03:58.343Z,20.06
2023-01-27T03:06:24.725Z,19.08
2023-01-27T03:08:51.112Z,19.77
2023-01-27T03:11:17.470Z,19.45
2023-01-27T03:13:43.851Z,19.68
2023-01-27T03:16:12.698Z,19.79
2023-01-27T03:18:41.023Z,19.81
2023-01-27T03:21:07.433Z,19.42
2023-01-27T03:23:36.027Z,19.27
2023-01-27T03:26:02.583Z,20.10
2023-01-27T03:28:28.927Z,19.88
2023-01-27T03:30:55.436Z,19.91
2023-01-27T03:33:23.974Z,19.77
2023-01-27T03:35:50.371Z,20.44
2023-01-27T03:38:16.852Z,19.74
2023-01-27T03:40:43.248Z,19.74
2023-01-27T03:43:09.631Z,20.05
2023-01-27T03:45:35.992Z,20.19
2023-01-27T03:48:02.744Z,20.22
2023-01-27T03:50:29.187Z,20.18
2023-01-27T03:55:36.827Z,20.88
2023-01-27T03:58:03.535Z,20.82
2023-01-27T04:00:29.922Z,21.45
2023-01-27T04:02:56.470Z,21.20
2023-01-27T04:05:23.065Z,20.79
2023-01-27T04:07:49.619Z,21.17
2023-01-27T04:10:16.020Z,21.06
2023-01-27T04:12:42.432Z,21.45
2023-01-27T04:15:08.829Z,20.90
2023-01-27T04:17:35.273Z,21.45
2023-01-27T04:20:03.698Z,21.05
2023-01-27T04:22:32.400Z,21.17
2023-01-27T04:24:58.842Z,20.71
2023-01-27T04:27:27.827Z,21.50
2023-01-27T04:29:56.269Z,21.27
2023-01-27T04:32:22.763Z,21.31
2023-01-27T04:34:49.229Z,21.37
2023-01-27T04:37:15.623Z,21.01
2023-01-27T04:39:42.100Z,20.57
2023-01-27T04:42:08.460Z,20.46
2023-01-27T04:44:34.819Z,21.02
2023-01-27T04:47:01.342Z,21.33
2023-01-27T04:49:28.016Z,20.40
2023-01-27T04:51:54.422Z,21.01
2023-01-27T04:54:20.820Z,21.54
2023-01-27T04:56:47.208Z,21.12
2023-01-27T04:59:13.654Z,21.58
2023-01-27T05:01:40.110Z,20.72
2023-01-27T05:04:06.550Z,20.31
2023-01-27T05:06:32.925Z,20.64
2023-01-27T05:08:59.357Z,21.17
2023-01-27T05:11:26.191Z,21.79
2023-01-27T05:13:52.667Z,21.23
2023-01-27T05:16:19.097Z,21.32
2023-01-27T05:18:46.523Z,22.15
2023-01-27T05:21:12.888Z,21.28
2023-01-27T05:23:39.527Z,21.51
2023-01-27T05:26:05.922Z,21.59
2023-01-27T05:28:32.280Z,20.97
2023-01-27T05:30:58.744Z,21.41
2023-01-27T05:33:26.139Z,21.64
2023-01-27T05:35:52.838Z,20.77
2023-01-27T05:38:19.247Z,21.60
2023-01-27T05:40:45.639Z,21.48
2023-01-27T05:43:12.014Z,21.18
2023-01-27T05:45:38.398Z,20.84
2023-01-27T05:48:04.823Z,20.73
2023-01-27T05:50:33.689Z,21.15
2023-01-27T05:53:01.111Z,21.48
2023-01-27T05:55:27.522Z,21.78
2023-01-27T05:57:53.869Z,22.72
2023-01-27T06:00:20.317Z,22.84
2023-01-27T06:02:46.793Z,23.24
2023-01-27T06:05:13.538Z,22.98
2023-01-27T06:07:40.139Z,23.10
2023-01-27T06:10:06.542Z,22.80
2023-01-27T06:12:32.942Z,22.32
2023-01-27T06:14:59.330Z,22.34
2023-01-27T06:17:26.831Z,22.32
2023-01-27T06:19:53.180Z,22.75
2023-01-27T06:22:19.966Z,23.05
2023-01-27T06:24:46.372Z,22.08
2023-01-27T06:27:12.791Z,22.44
2023-01-27T06:29:39.257Z,21.99
2023-01-27T06:32:05.649Z,22.84
2023-01-27T06:34:32.116Z,22.56
2023-01-27T06:36:58.519Z,22.55
2023-01-27T06:39:25.079Z,22.44
2023-01-27T06:41:52.796Z,22.26
2023-01-27T06:44:19.399Z,22.00
2023-01-27T06:46:46.154Z,22.32
2023-01-27T06:49:12.531Z,22.53
2023-01-27T06:51:38.893Z,22.58
2023-01-27T06:54:06.014Z,22.36
2023-01-27T06:56:32.471Z,22.54
2023-01-27T06:58:58.915Z,22.85
2023-01-27T07:01:28.055Z,22.08
2023-01-27T07:03:54.520Z,21.84
2023-01-27T07:06:21.138Z,22.36
2023-01-27T07:08:47.736Z,22.30
2023-01-27T07:11:14.126Z,22.17
2023-01-27T07:13:40.623Z,21.68
2023-01-27T07:16:07.054Z,22.37
2023-01-27T07:18:33.822Z,22.49
2023-01-27T07:21:00.182Z,22.28
2023-01-27T07:23:26.543Z,21.83
2023-01-27T07:25:53.183Z,22.29
2023-01-27T07:28:19.613Z,23.02
2023-01-27T07:30:46.078Z,21.94
2023-01-27T07:33:12.504Z,21.76
2023-01-27T07:35:38.862Z,21.72
2023-01-27T07:38:05.496Z,21.98
2023-01-27T07:40:31.842Z,21.55
2023-01-27T07:42:58.219Z,22.91
2023-01-27T07:45:24.646Z,21.83
2023-01-27T07:47:51.501Z,21.88
2023-01-27T07:50:19.950Z,22.12
2023-01-27T07:52:46.314Z,21.49
2023-01-27T07:55:12.857Z,21.02
2023-01-27T07:57:39.409Z,21.61
2023-01-27T08:00:05.874Z,21.45
2023-01-27T08:02:32.236Z,21.98
2023-01-27T08:04:58.885Z,22.17
2023-01-27T08:07:27.286Z,21.79
2023-01-27T08:09:53.643Z,22.28
2023-01-27T08:12:21.050Z,21.54
2023-01-27T08:14:47.450Z,21.73
2023-01-27T08:17:13.817Z,21.97
2023-01-27T08:19:40.380Z,21.24
2023-01-27T08:22:06.780Z,21.58
2023-01-27T08:24:33.134Z,21.30
2023-01-27T08:26:59.706Z,21.31
2023-01-27T08:29:26.310Z,20.45
2023-01-27T08:31:52.767Z,20.73
2023-01-27T08:34:19.280Z,20.69
2023-01-27T08:36:45.905Z,21.01
2023-01-27T08:39:12.666Z,20.17
2023-01-27T08:41:39.062Z,21.66
2023-01-27T08:44:07.459Z,21.42
2023-01-27T08:46:33.822Z,21.20
2023-01-27T08:49:02.858Z,20.67
2023-01-27T08:51:29.342Z,21.01
2023-01-27T08:53:55.761Z,20.54
2023-01-27T08:56:22.584Z,20.68
2023-01-27T08:58:48.964Z,21.33
2023-01-27T09:01:15.610Z,20.70
2023-01-27T09:03:42.184Z,21.34
2023-01-27T09:06:08.560Z,20.53
2023-01-27T09:08:35.293Z,20.64
2023-01-27T09:11:01.670Z,21.13
2023-01-27T09:13:28.023Z,21.54
2023-01-27T09:15:56.462Z,21.02
2023-01-27T09:18:22.849Z,21.74
2023-01-27T09:20:50.221Z,22.30
2023-01-27T09:23:16.836Z,22.80
2023-01-27T09:25:43.204Z,23.54
2023-01-27T09:28:12.121Z,21.70
2023-01-27T09:30:40.917Z,22.37
2023-01-27T09:33:07.855Z,21.96
2023-01-27T09:35:34.243Z,22.08
2023-01-27T09:38:00.632Z,22.41
2023-01-27T09:40:28.197Z,21.57
2023-01-27T09:42:54.583Z,21.58
2023-01-27T09:45:21.998Z,21.25
2023-01-27T09:47:48.813Z,20.50
2023-01-27T09:50:15.909Z,20.65
2023-01-27T09:52:47.938Z,21.15
2023-01-27T09:55:16.776Z,21.68
2023-01-27T09:57:45.565Z,22.18
2023-01-27T10:00:12.411Z,21.48
2023-01-27T10:02:39.662Z,21.51
2023-01-27T10:05:06.146Z,20.82
2023-01-27T10:07:32.752Z,20.90
2023-01-27T10:09:59.154Z,20.40
2023-01-27T10:12:25.510Z,20.77
2023-01-27T10:14:51.899Z,20.16
2023-01-27T10:17:18.460Z,20.67
2023-01-27T10:19:44.886Z,20.02
2023-01-27T10:22:11.351Z,20.73
2023-01-27T10:24:37.740Z,20.66
2023-01-27T10:27:04.148Z,20.92
2023-01-27T10:29:31.609Z,20.02
2023-01-27T10:31:58.339Z,20.19
2023-01-27T10:34:24.866Z,20.35
2023-01-27T10:36:52.219Z,20.36
2023-01-27T10:39:18.608Z,20.91
2023-01-27T10:41:47.076Z,20.89
2023-01-27T10:44:13.477Z,20.86
2023-01-27T10:46:40.147Z,20.46
2023-01-27T10:49:08.988Z,19.67
2023-01-27T10:51:35.683Z,18.84
2023-01-27T10:54:02.040Z,19.53
2023-01-27T10:56:28.599Z,19.31
2023-01-27T10:59:02.989Z,19.49
2023-01-27T11:01:30.137Z,18.83
2023-01-27T11:03:57.087Z,18.72
2023-01-27T11:06:25.734Z,18.50
2023-01-27T11:08:52.193Z,18.13
2023-01-27T11:11:18.576Z,19.12
2023-01-27T11:13:45.143Z,18.61
2023-01-27T11:16:11.622Z,18.32
2023-01-27T11:18:38.231Z,18.09
2023-01-27T11:21:04.598Z,17.89
2023-01-27T11:23:31.236Z,17.57
2023-01-27T11:25:57.583Z,17.65
2023-01-27T11:28:24.163Z,17.10
2023-01-27T11:30:50.603Z,16.18
2023-01-27T11:33:21.077Z,16.64
2023-01-27T11:35:47.425Z,16.81
2023-01-27T11:38:16.007Z,17.00
2023-01-27T11:40:42.444Z,16.64
2023-01-27T11:43:09.051Z,16.26
2023-01-27T11:45:35.508Z,16.66
2023-01-27T11:48:01.986Z,17.09
2023-01-27T11:50:28.345Z,17.12
2023-01-27T11:52:56.768Z,17.45
2023-01-27T11:55:23.280Z,17.20
2023-01-27T11:57:49.698Z,16.68
2023-01-27T12:00:16.239Z,17.01
2023-01-27T12:02:44.663Z,17.05
2023-01-27T12:05:11.254Z,16.88
2023-01-27T12:07:37.684Z,16.42
2023-01-27T12:10:04.656Z,16.93
2023-01-27T12:12:33.408Z,17.26
2023-01-27T12:14:59.818Z,16.67
2023-01-27T12:17:26.227Z,16.83
2023-01-27T12:19:52.628Z,16.46
2023-01-27T12:22:19.150Z,16.77
2023-01-27T12:24:45.499Z,16.50
2023-01-27T12:27:11.887Z,17.04
2023-01-27T12:29:38.288Z,16.94
2023-01-27T12:32:04.706Z,16.23
2023-01-27T12:34:32.162Z,16.64
2023-01-27T12:36:58.521Z,16.77
2023-01-27T12:39:24.938Z,16.16
2023-01-27T12:41:51.439Z,16.17
2023-01-27T12:44:17.843Z,16.70
2023-01-27T12:46:44.216Z,17.01
2023-01-27T12:49:10.838Z,16.84
2023-01-27T12:51:37.340Z,16.49
2023-01-27T12:54:03.693Z,16.57
2023-01-27T12:56:30.077Z,16.60
2023-01-27T12:58:56.457Z,16.12
2023-01-27T13:01:23.012Z,16.91
2023-01-27T13:03:49.464Z,16.77
2023-01-27T13:06:15.949Z,17.12
2023-01-27T13:08:43.446Z,17.72
2023-01-27T13:11:09.849Z,17.59
2023-01-27T13:13:36.685Z,17.20
2023-01-27T13:16:04.110Z,17.36
2023-01-27T13:18:30.510Z,18.39
2023-01-27T13:20:56.903Z,18.46
2023-01-27T13:23:23.582Z,18.21
2023-01-27T13:25:49.992Z,18.63
2023-01-27T13:28:16.414Z,17.99
2023-01-27T13:30:43.244Z,18.34
2023-01-27T13:33:11.995Z,17.45
2023-01-27T13:35:38.425Z,17.37
2023-01-27T13:38:04.899Z,17.05
2023-01-27T13:40:31.266Z,16.99
2023-01-27T13:42:57.652Z,16.89
2023-01-27T13:45:26.519Z,16.58
2023-01-27T13:47:52.913Z,17.13
2023-01-27T13:50:19.395Z,17.91
2023-01-27T13:52:45.776Z,17.47
2023-01-27T13:55:12.211Z,17.67
2023-01-27T13:57:38.597Z,17.42
2023-01-27T14:00:05.000Z,17.48
2023-01-27T14:02:31.359Z,16.83
2023-01-27T14:04:58.549Z,17.04
2023-01-27T14:07:25.109Z,17.80
2023-01-27T14:09:51.577Z,16.65
2023-01-27T14:12:18.227Z,16.95
2023-01-27T14:14:57.352Z,16.60
2023-01-27T14:17:24.722Z,16.75
2023-01-27T14:19:51.066Z,16.52
2023-01-27T14:22:17.497Z,16.73
2023-01-27T14:24:44.048Z,15.86
2023-01-27T14:27:10.627Z,16.29
2023-01-27T14:29:37.026Z,15.50
2023-01-27T14:32:03.605Z,14.94
2023-01-27T14:34:30.208Z,15.21
2023-01-27T14:36:56.637Z,14.93
2023-01-27T14:39:23.064Z,14.46
2023-01-27T14:41:49.767Z,14.88
2023-01-27T14:44:16.131Z,14.92
2023-01-27T14:46:42.612Z,14.79
2023-01-27T14:49:09.025Z,13.87
2023-01-27T14:51:37.946Z,14.40
2023-01-27T14:54:04.331Z,14.15
2023-01-27T14:56:30.721Z,13.90
2023-01-27T14:58:57.074Z,13.68
2023-01-27T15:01:23.548Z,13.53
2023-01-27T15:03:49.947Z,12.99
2023-01-27T15:06:16.526Z,13.28
2023-01-27T15:08:45.945Z,12.58
2023-01-27T15:11:12.289Z,12.84
2023-01-27T15:13:38.738Z,13.13
2023-01-27T15:16:06.556Z,13.05
2023-01-27T15:18:33.349Z,12.93
2023-01-27T15:21:00.134Z,11.97
2023-01-27T15:23:26.643Z,12.82
2023-01-27T15:25:53.331Z,12.41
2023-01-27T15:28:19.984Z,12.59
2023-01-27T15:30:46.387Z,12.46
2023-01-27T15:33:16.253Z,12.59
2023-01-27T15:35:42.679Z,12.21
2023-01-27T15:38:09.491Z,12.07
2023-01-27T15:40:36.051Z,12.13
2023-01-27T15:43:02.542Z,11.84
2023-01-27T15:45:28.965Z,11.64
2023-01-27T15:47:57.359Z,11.60
2023-01-27T15:50:24.362Z,11.57
2023-01-27T15:52:50.740Z,11.27
2023-01-27T15:55:17.093Z,11.66
2023-01-27T15:57:43.779Z,11.50
2023-01-27T16:00:10.175Z,11.91
2023-01-27T16:02:36.567Z,11.56
2023-01-27T16:05:02.933Z,11.82
2023-01-27T16:07:29.393Z,12.39
2023-01-27T18:45:06.986Z,13.70
2023-01-27T18:47:33.397Z,13.92
2023-01-27T18:49:59.760Z,13.97
2023-01-27T18:52:26.110Z,14.27
2023-01-27T18:54:52.469Z,14.09
2023-01-27T18:57:19.077Z,13.77
2023-01-27T18:59:45.647Z,13.98
2023-01-27T19:02:12.400Z,14.27
2023-01-27T19:04:38.761Z,14.34
2023-01-27T19:07:05.139Z,14.50
2023-01-27T19:09:33.890Z,14.39
2023-01-27T19:12:00.257Z,14.52
2023-01-27T19:14:26.791Z,14.45
2023-01-27T19:16:55.495Z,14.92
2023-01-27T19:19:22.560Z,14.55
2023-01-27T19:21:48.960Z,15.26
2023-01-27T19:24:16.495Z,15.36
2023-01-27T19:26:43.115Z,15.44
2023-01-27T19:29:09.694Z,15.12
2023-01-27T19:31:36.142Z,14.92
2023-01-27T19:34:02.575Z,14.98
2023-01-27T19:36:28.936Z,15.26
2023-01-27T19:38:55.303Z,15.31
2023-01-27T19:41:21.859Z,16.15
2023-01-27T19:43:48.245Z,15.94
2023-01-27T19:46:15.080Z,15.50
2023-01-27T19:48:41.560Z,15.15
2023-01-27T19:51:07.953Z,15.98
2023-01-27T19:53:34.342Z,15.95
2023-01-27T19:56:00.703Z,16.25
2023-01-27T19:58:27.046Z,16.19
2023-01-27T20:00:53.747Z,16.48
2023-01-27T20:03:20.221Z,16.97
2023-01-27T20:05:46.630Z,17.12
2023-01-27T20:08:12.988Z,16.60
2023-01-27T20:10:39.368Z,17.23
2023-01-27T20:13:07.921Z,17.41
2023-01-27T20:15:34.327Z,16.65
2023-01-27T20:18:00.722Z,16.49
2023-01-27T20:20:27.084Z,16.69
2023-01-27T20:22:54.463Z,16.47
2023-01-27T20:25:23.389Z,16.73
2023-01-27T20:27:49.790Z,16.79
2023-01-27T20:30:16.156Z,16.82
2023-01-27T20:32:42.585Z,17.02
2023-01-27T20:35:08.936Z,16.41
2023-01-27T20:37:35.337Z,15.91
2023-01-27T20:40:01.703Z,16.89
2023-01-27T20:42:28.064Z,17.33
2023-01-27T20:44:54.429Z,15.90
2023-01-27T20:47:21.820Z,15.97
2023-01-27T20:49:48.190Z,15.93
2023-01-27T20:52:14.564Z,15.90
2023-01-27T20:54:40.966Z,15.91
2023-01-27T20:57:07.334Z,15.60
2023-01-27T20:59:33.744Z,15.89
2023-01-27T21:02:00.194Z,15.73
2023-01-27T21:04:26.657Z,15.63
2023-01-27T21:06:53.010Z,15.70
2023-01-27T21:09:19.647Z,15.85
2023-01-27T21:11:45.991Z,16.34
2023-01-27T21:14:12.422Z,15.40
2023-01-27T21:16:38.858Z,16.02
2023-01-27T21:19:07.372Z,15.67
2023-01-27T21:21:33.723Z,15.97
2023-01-27T21:24:00.291Z,15.84
2023-01-27T21:26:26.744Z,15.46
2023-01-27T21:28:53.227Z,15.43
2023-01-27T21:31:19.718Z,15.06
2023-01-27T21:33:46.146Z,14.76
2023-01-27T21:36:12.526Z,15.42
2023-01-27T21:38:38.960Z,16.34
2023-01-27T21:41:05.362Z,15.83
2023-01-27T21:43:31.753Z,16.00
2023-01-27T21:45:58.311Z,15.80
2023-01-27T21:48:24.959Z,15.73
2023-01-27T21:50:51.660Z,15.99
2023-01-27T21:53:18.286Z,15.66
2023-01-27T21:55:45.691Z,15.71
2023-01-27T21:58:12.176Z,15.83
2023-01-27T22:00:38.620Z,15.87
2023-01-27T22:03:05.052Z,15.50
2023-01-27T22:05:31.484Z,15.36
2023-01-27T22:07:59.631Z,15.71
2023-01-27T22:10:26.145Z,15.70
2023-01-27T22:12:52.584Z,15.65
2023-01-27T22:15:18.988Z,16.53
2023-01-27T22:17:45.381Z,15.79
2023-01-27T22:20:11.824Z,16.26
2023-01-27T22:22:38.246Z,16.01
2023-01-27T22:25:05.015Z,15.57
2023-01-27T22:27:31.390Z,15.80
2023-01-27T22:29:58.021Z,15.53
2023-01-27T22:32:24.405Z,16.65
2023-01-27T22:34:51.104Z,16.46
2023-01-27T22:37:17.475Z,16.03
2023-01-27T22:39:44.228Z,16.08
2023-01-27T22:42:10.834Z,15.69
2023-01-27T22:44:37.551Z,15.94
2023-01-27T22:47:03.926Z,15.75
2023-01-27T22:49:31.766Z,15.70
2023-01-27T22:51:58.187Z,16.14
2023-01-27T22:54:24.618Z,16.66
2023-01-27T22:56:51.118Z,16.84
2023-01-27T22:59:17.489Z,17.18
2023-01-27T23:01:43.888Z,17.12
2023-01-27T23:04:10.299Z,17.25
2023-01-27T23:06:37.429Z,17.18
2023-01-27T23:09:04.031Z,17.75
2023-01-27T23:11:30.486Z,16.73
2023-01-27T23:13:56.908Z,16.67
2023-01-27T23:16:23.515Z,17.12
2023-01-27T23:18:49.940Z,17.60
2023-01-27T23:21:16.356Z,17.14
2023-01-27T23:23:43.020Z,17.61
2023-01-27T23:26:09.483Z,17.00
2023-01-27T23:28:35.858Z,17.59
2023-01-27T23:31:02.309Z,17.53
2023-01-27T23:33:40.228Z,18.21
2023-01-27T23:36:06.617Z,18.08
2023-01-27T23:38:33.869Z,18.82
2023-01-27T23:41:02.510Z,18.51
2023-01-27T23:43:28.874Z,18.42
2023-01-27T23:45:55.802Z,18.32
2023-01-27T23:48:22.333Z,18.31
2023-01-27T23:50:48.682Z,18.70
2023-01-27T23:53:15.121Z,18.41
2023-01-27T23:55:41.631Z,17.99
2023-01-27T23:58:08.030Z,18.75
